createdAt,value
2018-12-06T00:00:50.640Z,7.67
2018-12-06T00:03:19.747Z,8.67
2018-12-06T00:05:48.732Z,9.50
2018-12-06T00:08:19.087Z,7.20
2018-12-06T00:10:48.163Z,7.80
2018-12-06T00:13:17.143Z,9.37
2018-12-06T00:15:46.258Z,8.67
2018-12-06T00:18:15.310Z,7.90
2018-12-06T00:20:44.250Z,7.23
2018-12-06T00:23:13.673Z,8.70
2018-12-06T00:25:43.253Z,9.03
2018-12-06T00:28:12.195Z,7.00
2018-12-06T00:30:42.539Z,9.47
2018-12-06T00:33:11.554Z,7.97
2018-12-06T00:35:40.540Z,7.20
2018-12-06T00:38:10.192Z,9.33
2018-12-06T00:40:39.131Z,7.40
2018-12-06T00:43:09.104Z,6.60
2018-12-06T00:45:38.111Z,7.27
2018-12-06T00:48:07.064Z,9.10
2018-12-06T00:50:36.046Z,7.57
2018-12-06T00:53:05.068Z,7.53
2018-12-06T00:55:34.083Z,7.53
2018-12-06T00:58:03.090Z,7.70
2018-12-06T01:00:32.500Z,8.53
2018-12-06T01:03:01.470Z,7.80
2018-12-06T01:05:30.916Z,7.97
2018-12-06T01:08:00.242Z,6.87
2018-12-06T01:10:29.188Z,7.40
2018-12-06T01:12:58.258Z,9.80
2018-12-06T01:15:27.958Z,7.30
2018-12-06T01:17:56.981Z,8.83
2018-12-06T01:20:25.983Z,7.97
2018-12-06T01:22:54.998Z,6.90
2018-12-06T01:25:23.937Z,8.40
2018-12-06T01:27:53.946Z,6.53
2018-12-06T01:30:22.975Z,8.50
2018-12-06T01:32:51.909Z,6.77
2018-12-06T01:35:20.908Z,7.47
2018-12-06T01:37:49.889Z,6.80
2018-12-06T01:40:18.919Z,8.60
2018-12-06T01:42:47.878Z,8.13
2018-12-06T01:45:17.182Z,7.03
2018-12-06T01:47:46.131Z,7.13
2018-12-06T01:50:15.055Z,8.23
2018-12-06T01:52:44.047Z,5.70
2018-12-06T01:55:12.991Z,6.20
2018-12-06T01:57:41.917Z,7.10
2018-12-06T02:00:11.228Z,6.17
2018-12-06T02:02:40.226Z,7.33
2018-12-06T02:05:09.256Z,7.90
2018-12-06T02:07:38.312Z,8.27
2018-12-06T02:10:07.479Z,7.13
2018-12-06T02:12:37.603Z,7.10
2018-12-06T02:15:06.723Z,7.13
2018-12-06T02:17:36.603Z,7.67
2018-12-06T02:20:06.539Z,6.67
2018-12-06T02:22:36.783Z,7.27
2018-12-06T02:25:05.869Z,8.67
2018-12-06T02:27:34.814Z,6.87
2018-12-06T02:30:04.192Z,7.97
2018-12-06T02:32:33.144Z,6.87
2018-12-06T02:35:02.140Z,6.90
2018-12-06T02:37:31.727Z,6.57
2018-12-06T02:40:00.711Z,7.17
2018-12-06T02:42:29.676Z,7.40
2018-12-06T02:44:58.735Z,8.80
2018-12-06T02:47:27.666Z,7.13
2018-12-06T02:49:56.627Z,6.87
2018-12-06T02:52:25.867Z,7.33
2018-12-06T02:54:55.058Z,7.10
2018-12-06T02:57:24.072Z,5.63
2018-12-06T02:59:53.317Z,7.10
2018-12-06T03:02:23.286Z,7.23
2018-12-06T03:04:52.259Z,7.90
2018-12-06T03:07:21.302Z,7.43
2018-12-06T03:09:50.238Z,5.73
2018-12-06T03:12:19.207Z,7.93
2018-12-06T03:14:48.316Z,7.70
2018-12-06T03:17:17.325Z,7.47
2018-12-06T03:19:47.809Z,10.00
2018-12-06T03:22:16.396Z,7.27
2018-12-06T03:24:45.341Z,8.30
2018-12-06T03:27:14.321Z,9.63
2018-12-06T03:29:43.370Z,8.57
2018-12-06T03:32:12.414Z,7.03
2018-12-06T03:34:41.467Z,45.80
2018-12-06T03:37:10.729Z,6.53
2018-12-06T03:39:39.708Z,9.47
2018-12-06T03:42:08.711Z,7.20
2018-12-06T03:44:37.743Z,7.00
2018-12-06T03:47:06.710Z,6.60
2018-12-06T03:49:35.677Z,6.93
2018-12-06T03:52:05.328Z,8.10
2018-12-06T03:54:34.268Z,9.97
2018-12-06T03:57:03.233Z,7.30
2018-12-06T03:59:32.960Z,7.00
2018-12-06T04:02:01.957Z,9.53
2018-12-06T04:04:30.928Z,7.17
2018-12-06T04:06:59.934Z,7.37
2018-12-06T04:09:28.883Z,7.67
2018-12-06T04:11:57.848Z,9.57
2018-12-06T04:14:26.867Z,9.83
2018-12-06T04:16:55.871Z,9.57
2018-12-06T04:19:24.848Z,9.37
2018-12-06T04:21:54.118Z,8.77
2018-12-06T04:24:23.189Z,9.13
2018-12-06T04:26:52.198Z,7.53
2018-12-06T04:29:21.482Z,8.07
2018-12-06T04:31:50.509Z,8.30
2018-12-06T04:34:19.576Z,7.77
2018-12-06T04:36:48.615Z,8.17
2018-12-06T04:39:17.605Z,7.40
2018-12-06T04:41:47.106Z,10.53
2018-12-06T04:44:16.432Z,8.80
2018-12-06T04:46:45.587Z,8.97
2018-12-06T04:49:14.539Z,8.97
2018-12-06T04:51:43.603Z,8.37
2018-12-06T04:54:12.645Z,7.97
2018-12-06T04:56:42.030Z,13.83
2018-12-06T04:59:11.610Z,10.53
2018-12-06T05:01:40.707Z,7.90
2018-12-06T05:04:09.904Z,8.80
2018-12-06T05:06:39.555Z,9.50
2018-12-06T05:09:08.959Z,8.67
2018-12-06T05:11:38.009Z,7.83
2018-12-06T05:14:07.254Z,7.70
2018-12-06T05:16:36.475Z,9.63
2018-12-06T05:19:05.540Z,8.43
2018-12-06T05:21:34.766Z,10.60
2018-12-06T05:24:03.856Z,10.10
2018-12-06T05:26:33.298Z,10.07
2018-12-06T05:29:02.438Z,9.33
2018-12-06T05:31:31.501Z,10.00
2018-12-06T05:34:00.607Z,10.43
2018-12-06T05:36:29.657Z,13.47
2018-12-06T05:38:58.770Z,15.57
2018-12-06T05:41:27.806Z,16.87
2018-12-06T05:43:57.033Z,10.70
2018-12-06T05:46:26.654Z,10.50
2018-12-06T05:48:55.799Z,11.13
2018-12-06T05:51:24.901Z,15.20
2018-12-06T05:53:54.011Z,8.47
2018-12-06T05:56:23.035Z,9.57
2018-12-06T05:58:52.224Z,10.77
2018-12-06T06:01:21.351Z,12.57
2018-12-06T06:03:50.708Z,11.67
2018-12-06T06:06:20.166Z,11.33
2018-12-06T06:08:49.242Z,8.03
2018-12-06T06:11:18.240Z,8.67
2018-12-06T06:13:47.367Z,7.60
2018-12-06T06:16:16.525Z,9.20
2018-12-06T06:18:45.612Z,9.80
2018-12-06T06:21:14.996Z,19.93
2018-12-06T06:23:44.148Z,16.70
2018-12-06T06:26:13.300Z,13.30
2018-12-06T06:28:42.406Z,16.20
2018-12-06T06:31:12.488Z,48.37
2018-12-06T06:33:41.547Z,20.27
2018-12-06T06:36:10.760Z,26.13
2018-12-06T06:38:39.806Z,35.63
2018-12-06T06:41:08.869Z,24.70
2018-12-06T06:43:38.003Z,12.53
2018-12-06T06:46:07.046Z,12.57
2018-12-06T06:48:36.122Z,9.97
2018-12-06T06:51:05.180Z,14.33
2018-12-06T06:53:34.152Z,16.23
2018-12-06T06:56:03.187Z,13.63
2018-12-06T06:58:32.601Z,16.73
2018-12-06T07:01:01.673Z,16.37
2018-12-06T07:03:30.739Z,11.57
2018-12-06T07:05:59.856Z,14.03
2018-12-06T07:08:28.958Z,13.27
2018-12-06T07:10:58.003Z,14.03
2018-12-06T07:13:27.121Z,11.93
2018-12-06T07:15:56.227Z,9.87
2018-12-06T07:18:25.288Z,10.27
2018-12-06T07:20:54.432Z,9.50
2018-12-06T07:23:23.388Z,9.53
2018-12-06T07:25:52.546Z,9.53
2018-12-06T07:28:21.622Z,11.60
2018-12-06T07:30:50.817Z,10.93
2018-12-06T07:33:19.914Z,11.50
2018-12-06T07:35:49.234Z,12.87
2018-12-06T07:38:18.297Z,10.23
2018-12-06T07:40:47.483Z,10.33
2018-12-06T07:43:16.649Z,11.30
2018-12-06T07:45:45.775Z,13.47
2018-12-06T07:48:14.901Z,10.50
2018-12-06T07:50:44.051Z,7.63
2018-12-06T07:53:13.050Z,12.87
2018-12-06T07:55:42.128Z,12.77
2018-12-06T07:58:11.131Z,12.07
2018-12-06T08:00:40.187Z,14.87
2018-12-06T08:03:09.334Z,13.83
2018-12-06T08:05:38.458Z,13.73
2018-12-06T08:08:08.269Z,14.87
2018-12-06T08:10:37.323Z,12.20
2018-12-06T08:13:06.837Z,13.53
2018-12-06T08:15:35.925Z,12.97
2018-12-06T08:18:05.070Z,14.30
2018-12-06T08:20:34.159Z,12.60
2018-12-06T08:23:03.240Z,11.53
2018-12-06T08:25:32.576Z,14.30
2018-12-06T08:28:01.676Z,11.90
2018-12-06T08:30:30.804Z,11.90
2018-12-06T08:32:59.883Z,10.93
2018-12-06T08:35:28.975Z,11.13
2018-12-06T08:37:58.029Z,12.87
2018-12-06T08:40:27.025Z,10.90
2018-12-06T08:42:56.167Z,12.20
2018-12-06T08:45:25.527Z,11.23
2018-12-06T08:47:54.543Z,13.10
2018-12-06T09:39:32.465Z,15.30
2018-12-06T09:45:07.319Z,17.70
2018-12-06T09:47:38.241Z,17.47
2018-12-06T09:50:07.864Z,14.53
2018-12-06T09:52:39.219Z,12.77
2018-12-06T09:55:14.295Z,17.57
2018-12-06T09:57:43.336Z,18.80
2018-12-06T10:00:15.494Z,16.07
2018-12-06T10:02:45.042Z,15.93
2018-12-06T10:05:13.994Z,17.37
2018-12-06T10:07:42.971Z,15.63
2018-12-06T10:10:13.058Z,17.33
2018-12-06T10:12:48.619Z,12.70
2018-12-06T10:15:21.144Z,16.87
2018-12-06T10:17:50.468Z,13.70
2018-12-06T10:20:25.253Z,13.70
2018-12-06T10:22:57.549Z,15.37
2018-12-06T10:25:27.257Z,13.50
2018-12-06T10:27:57.310Z,17.63
2018-12-06T10:30:26.689Z,14.63
2018-12-06T10:32:56.513Z,15.93
2018-12-06T10:35:26.401Z,13.10
2018-12-06T10:37:56.417Z,15.57
2018-12-06T10:40:25.609Z,12.63
2018-12-06T10:42:55.101Z,13.57
2018-12-06T10:45:24.244Z,16.07
2018-12-06T10:47:53.376Z,15.57
2018-12-06T10:50:22.444Z,13.83
2018-12-06T10:52:51.445Z,14.53
2018-12-06T10:55:20.483Z,15.03
2018-12-06T10:57:49.685Z,12.53
2018-12-06T11:01:24.312Z,13.77
2018-12-06T11:03:58.350Z,14.10
2018-12-06T11:06:29.136Z,13.10
2018-12-06T11:08:58.130Z,16.27
2018-12-06T11:11:27.164Z,12.67
2018-12-06T11:13:56.455Z,16.37
2018-12-06T11:16:25.445Z,14.17
2018-12-06T11:18:54.615Z,13.23
2018-12-06T11:21:25.595Z,15.17
2018-12-06T11:23:56.464Z,15.23
2018-12-06T11:26:25.708Z,13.33
2018-12-06T11:28:54.741Z,17.07
2018-12-06T11:31:23.866Z,18.30
2018-12-06T11:33:52.884Z,28.63
2018-12-06T11:36:21.994Z,13.00
2018-12-06T11:38:51.134Z,16.40
2018-12-06T11:41:20.231Z,14.93
2018-12-06T11:43:49.479Z,13.27
2018-12-06T11:46:18.624Z,14.87
2018-12-06T11:48:47.791Z,16.93
2018-12-06T11:51:17.477Z,13.77
2018-12-06T11:53:47.243Z,12.43
2018-12-06T11:56:16.520Z,12.93
2018-12-06T11:58:45.715Z,20.20
2018-12-06T12:01:15.106Z,14.03
2018-12-06T12:03:44.245Z,15.53
2018-12-06T12:06:13.451Z,17.50
2018-12-06T12:08:42.902Z,15.90
2018-12-06T12:11:12.094Z,15.03
2018-12-06T12:13:41.285Z,18.30
2018-12-06T12:16:10.410Z,15.90
2018-12-06T12:18:39.689Z,16.40
2018-12-06T12:21:08.901Z,13.27
2018-12-06T12:23:38.169Z,23.00
2018-12-06T12:26:07.499Z,17.37
2018-12-06T12:28:36.688Z,18.83
2018-12-06T12:31:06.169Z,19.77
2018-12-06T12:33:35.286Z,16.10
2018-12-06T12:36:04.487Z,17.17
2018-12-06T12:38:33.716Z,15.80
2018-12-06T12:41:02.903Z,13.87
2018-12-06T12:43:32.028Z,13.00
2018-12-06T12:46:01.080Z,15.23
2018-12-06T12:48:30.099Z,13.60
2018-12-06T12:50:59.164Z,17.33
2018-12-06T12:53:28.273Z,19.83
2018-12-06T12:55:57.355Z,40.73
2018-12-06T12:58:26.366Z,14.17
2018-12-06T13:00:55.466Z,18.23
2018-12-06T13:03:24.492Z,13.97
2018-12-06T13:05:53.533Z,15.27
2018-12-06T13:08:22.864Z,15.87
2018-12-06T13:10:51.925Z,18.53
2018-12-06T13:13:20.979Z,15.63
2018-12-06T13:15:49.988Z,18.87
2018-12-06T13:18:19.203Z,17.67
2018-12-06T13:20:48.265Z,18.73
2018-12-06T13:23:17.508Z,17.37
2018-12-06T13:25:46.505Z,21.30
2018-12-06T13:28:15.527Z,16.30
2018-12-06T13:30:44.594Z,17.63
2018-12-06T13:33:13.814Z,18.77
2018-12-06T13:35:42.932Z,16.73
2018-12-06T13:38:12.026Z,18.27
2018-12-06T13:40:41.092Z,19.20
2018-12-06T13:43:10.172Z,20.70
2018-12-06T13:45:39.246Z,19.37
2018-12-06T13:48:08.382Z,18.50
2018-12-06T13:50:37.495Z,26.17
2018-12-06T13:53:06.613Z,19.10
2018-12-06T13:55:35.751Z,18.27
2018-12-06T13:58:04.908Z,16.90
2018-12-06T14:00:34.002Z,16.00
2018-12-06T14:03:03.055Z,23.23
2018-12-06T14:05:32.250Z,19.77
2018-12-06T14:08:01.343Z,16.20
2018-12-06T14:10:30.418Z,19.67
2018-12-06T14:12:59.515Z,87.90
2018-12-06T14:15:28.531Z,26.93
2018-12-06T14:17:57.556Z,23.63
2018-12-06T14:20:26.808Z,23.87
2018-12-06T14:22:56.162Z,26.57
2018-12-06T14:25:25.236Z,25.13
2018-12-06T14:27:54.447Z,26.70
2018-12-06T14:30:24.188Z,27.73
2018-12-06T14:32:53.252Z,27.27
2018-12-06T14:35:22.506Z,22.90
2018-12-06T14:37:51.585Z,25.23
2018-12-06T14:40:20.799Z,25.07
2018-12-06T14:42:50.175Z,22.20
2018-12-06T14:45:19.472Z,22.87
2018-12-06T14:47:48.479Z,21.30
2018-12-06T14:50:22.656Z,26.27
2018-12-06T14:52:51.781Z,24.60
2018-12-06T14:55:20.951Z,23.47
2018-12-06T14:57:50.066Z,26.27
2018-12-06T15:00:19.230Z,30.13
2018-12-06T15:02:48.191Z,28.23
2018-12-06T15:05:17.560Z,30.53
2018-12-06T15:07:46.619Z,30.17
2018-12-06T15:10:15.769Z,30.67
2018-12-06T15:12:44.986Z,33.53
2018-12-06T15:15:14.234Z,29.10
2018-12-06T15:17:43.416Z,31.00
2018-12-06T15:20:12.719Z,33.40
2018-12-06T15:22:41.801Z,30.73
2018-12-06T15:25:11.027Z,35.53
2018-12-06T15:27:40.391Z,37.10
2018-12-06T15:30:10.924Z,25.10
2018-12-06T15:32:39.932Z,30.53
2018-12-06T15:35:09.147Z,22.73
2018-12-06T15:37:38.217Z,23.37
2018-12-06T15:40:07.668Z,21.70
2018-12-06T15:42:36.778Z,24.43
2018-12-06T15:45:06.347Z,23.90
2018-12-06T15:47:35.459Z,24.30
2018-12-06T15:50:04.872Z,26.47
2018-12-06T15:52:34.140Z,27.10
2018-12-06T15:55:03.216Z,32.13
2018-12-06T15:57:32.443Z,23.97
2018-12-06T16:00:01.517Z,23.80
2018-12-06T16:02:30.583Z,22.73
2018-12-06T16:04:59.648Z,19.40
2018-12-06T16:07:28.742Z,20.10
2018-12-06T16:09:57.763Z,17.63
2018-12-06T16:12:27.024Z,16.87
2018-12-06T16:14:56.144Z,17.33
2018-12-06T16:17:25.154Z,15.53
2018-12-06T16:19:54.319Z,17.83
2018-12-06T16:22:23.395Z,14.93
2018-12-06T16:24:52.551Z,17.97
2018-12-06T16:27:21.700Z,16.53
2018-12-06T16:29:51.613Z,18.57
2018-12-06T16:32:20.200Z,25.83
2018-12-06T16:34:49.572Z,30.23
2018-12-06T16:37:18.788Z,12.87
2018-12-06T16:39:47.941Z,32.37
2018-12-06T16:42:17.355Z,33.33
2018-12-06T16:44:46.581Z,30.27
2018-12-06T16:47:15.918Z,26.50
2018-12-06T16:49:45.055Z,23.97
2018-12-06T16:52:14.272Z,25.53
2018-12-06T16:54:43.440Z,24.13
2018-12-06T16:57:13.157Z,25.30
2018-12-06T16:59:42.251Z,26.80
2018-12-06T17:02:11.437Z,24.73
2018-12-06T17:04:40.649Z,24.60
2018-12-06T17:07:09.748Z,31.57
2018-12-06T17:09:38.968Z,33.03
2018-12-06T17:12:08.157Z,35.63
2018-12-06T17:14:37.263Z,40.70
2018-12-06T17:17:06.443Z,38.50
2018-12-06T17:19:35.563Z,44.60
2018-12-06T17:22:04.824Z,46.63
2018-12-06T17:24:34.025Z,43.73
2018-12-06T17:27:03.127Z,36.27
2018-12-06T17:29:32.213Z,31.40
2018-12-06T17:32:01.376Z,29.33
2018-12-06T17:34:30.621Z,34.70
2018-12-06T17:36:59.766Z,39.20
2018-12-06T17:39:28.870Z,33.80
2018-12-06T17:41:58.509Z,44.03
2018-12-06T17:44:27.718Z,40.43
2018-12-06T17:46:57.008Z,37.30
2018-12-06T17:49:26.168Z,33.60
2018-12-06T17:51:55.241Z,45.43
2018-12-06T17:54:24.478Z,40.60
2018-12-06T17:56:53.922Z,51.67
2018-12-06T17:59:22.981Z,76.70
2018-12-06T18:01:52.137Z,73.23
2018-12-06T18:04:21.230Z,75.03
2018-12-06T18:06:50.397Z,71.93
2018-12-06T18:09:19.506Z,72.00
2018-12-06T18:11:48.612Z,69.30
2018-12-06T18:14:17.696Z,64.10
2018-12-06T18:16:46.704Z,62.03
2018-12-06T18:19:15.869Z,54.10
2018-12-06T18:21:45.247Z,67.83
2018-12-06T18:24:18.552Z,62.67
2018-12-06T18:26:44.693Z,48.93
2018-12-06T18:29:14.212Z,47.50
2018-12-06T18:31:44.205Z,45.83
2018-12-06T18:34:19.890Z,40.20
2018-12-06T18:36:49.371Z,42.33
2018-12-06T18:39:18.927Z,37.10
2018-12-06T18:41:48.329Z,31.23
2018-12-06T18:44:17.549Z,34.47
2018-12-06T18:46:46.678Z,26.93
2018-12-06T18:49:16.230Z,46.33
2018-12-06T18:51:45.903Z,74.23
2018-12-06T18:54:15.558Z,71.17
2018-12-06T18:56:45.202Z,56.90
2018-12-06T18:59:15.039Z,52.43
2018-12-06T19:01:44.402Z,54.87
2018-12-06T19:04:13.816Z,52.97
2018-12-06T19:06:45.197Z,62.33
2018-12-06T19:09:14.437Z,49.87
2018-12-06T19:11:43.598Z,43.33
2018-12-06T19:14:12.663Z,44.40
2018-12-06T19:16:42.119Z,40.50
2018-12-06T19:19:11.308Z,32.63
2018-12-06T19:21:40.451Z,29.90
2018-12-06T19:24:09.681Z,28.93
2018-12-06T19:26:38.803Z,30.83
2018-12-06T19:29:07.978Z,25.70
2018-12-06T19:31:37.118Z,30.93
2018-12-06T19:34:06.197Z,26.03
2018-12-06T19:36:35.227Z,24.67
2018-12-06T19:39:05.105Z,32.40
2018-12-06T19:41:34.135Z,47.60
2018-12-06T19:44:03.344Z,37.63
2018-12-06T19:46:32.460Z,41.70
2018-12-06T19:49:01.563Z,44.30
2018-12-06T19:51:30.786Z,45.90
2018-12-06T19:53:59.926Z,41.20
2018-12-06T19:56:29.278Z,35.47
2018-12-06T19:58:58.472Z,32.50
2018-12-06T20:01:27.753Z,85.80
2018-12-06T20:03:56.848Z,33.97
2018-12-06T20:06:25.992Z,35.10
2018-12-06T20:08:55.124Z,32.90
2018-12-06T20:11:24.291Z,34.07
2018-12-06T20:13:53.460Z,31.43
2018-12-06T20:16:22.702Z,32.97
2018-12-06T20:18:51.989Z,32.00
2018-12-06T20:21:23.825Z,31.03
2018-12-06T20:23:53.994Z,34.77
2018-12-06T20:26:23.292Z,36.60
2018-12-06T20:28:52.832Z,39.20
2018-12-06T20:31:22.566Z,42.30
2018-12-06T20:33:51.985Z,40.73
2018-12-06T20:36:21.111Z,43.57
2018-12-06T20:38:50.233Z,40.43
2018-12-06T20:41:19.362Z,43.40
2018-12-06T20:43:48.387Z,36.20
2018-12-06T20:46:17.484Z,37.30
2018-12-06T20:48:46.579Z,33.73
2018-12-06T20:51:15.720Z,36.27
2018-12-06T20:53:44.815Z,169.87
2018-12-06T20:56:13.813Z,46.73
2018-12-06T20:58:42.927Z,45.90
2018-12-06T21:01:11.977Z,49.27
2018-12-06T21:03:41.062Z,49.43
2018-12-06T21:06:10.270Z,66.50
2018-12-06T21:08:39.288Z,64.20
2018-12-06T21:11:08.386Z,50.07
2018-12-06T21:13:38.673Z,48.37
2018-12-06T21:16:07.889Z,45.03
2018-12-06T21:18:36.931Z,43.03
2018-12-06T21:21:06.308Z,38.07
2018-12-06T21:23:35.497Z,38.80
2018-12-06T21:26:04.647Z,38.50
2018-12-06T21:28:34.016Z,35.93
2018-12-06T21:31:03.055Z,38.80
2018-12-06T21:33:32.156Z,32.77
2018-12-06T21:36:01.421Z,35.20
2018-12-06T21:38:30.704Z,29.83
2018-12-06T21:41:00.132Z,31.13
2018-12-06T21:43:29.323Z,32.63
2018-12-06T21:45:58.551Z,32.13
2018-12-06T21:48:27.661Z,31.33
2018-12-06T21:50:57.055Z,31.20
2018-12-06T21:53:26.047Z,30.40
2018-12-06T21:55:55.082Z,33.73
2018-12-06T21:58:24.190Z,37.80
2018-12-06T22:00:53.188Z,38.97
2018-12-06T22:03:22.187Z,35.43
2018-12-06T22:05:51.231Z,33.60
2018-12-06T22:08:20.259Z,38.13
2018-12-06T22:10:49.271Z,38.20
2018-12-06T22:13:18.418Z,40.50
2018-12-06T22:15:47.660Z,40.03
2018-12-06T22:18:16.707Z,36.60
2018-12-06T22:20:45.797Z,39.23
2018-12-06T22:23:14.876Z,37.47
2018-12-06T22:25:43.869Z,40.27
2018-12-06T22:28:12.953Z,40.30
2018-12-06T22:30:47.410Z,38.47
2018-12-06T22:33:17.108Z,35.23
2018-12-06T22:35:47.092Z,39.60
2018-12-06T22:38:17.051Z,42.17
2018-12-06T22:40:46.248Z,39.03
2018-12-06T22:43:15.450Z,37.03
2018-12-06T22:46:03.100Z,41.70
2018-12-06T22:48:32.119Z,36.93
2018-12-06T22:51:01.331Z,38.53
2018-12-06T22:53:30.537Z,35.13
2018-12-06T22:55:59.652Z,38.93
2018-12-06T22:58:28.935Z,37.87
2018-12-06T23:00:59.648Z,34.13
2018-12-06T23:03:28.957Z,37.33
2018-12-06T23:05:58.169Z,35.93
2018-12-06T23:08:27.284Z,38.57
2018-12-06T23:10:56.362Z,39.53
2018-12-06T23:13:25.504Z,33.17
2018-12-06T23:15:54.606Z,36.63
2018-12-06T23:18:23.646Z,32.90
2018-12-06T23:20:52.834Z,36.70
2018-12-06T23:23:22.026Z,36.27
2018-12-06T23:25:51.043Z,34.07
2018-12-06T23:28:20.144Z,34.30
2018-12-06T23:30:49.366Z,35.83
2018-12-06T23:33:18.509Z,34.50
2018-12-06T23:35:47.590Z,36.97
2018-12-06T23:38:16.679Z,36.60
2018-12-06T23:40:45.836Z,34.17
2018-12-06T23:43:17.437Z,31.20
2018-12-06T23:45:46.674Z,33.67
2018-12-06T23:48:15.863Z,34.57
2018-12-06T23:50:44.982Z,31.87
2018-12-06T23:53:14.179Z,30.33
2018-12-06T23:55:43.345Z,31.77
2018-12-06T23:58:12.532Z,33.87
